Time;durP1;ratioP1;P1;durP2;ratioP2;P2;SDS_P1;SDS_P2;PMS_P1;PMS_P2;Temp;Humidity;BMP_temperature;BMP_pressure;BME280_temperature;BME280_humidity;BME280_pressure;Samples;Min_cycle;Max_cycle;Signal;HPM_P1;HPM_P2
2022/06/30 00:01:45;;;;;;;2.47;1.70;;;;;;;;;;5009434;28;20278;-76
2022/06/30 00:04:13;;;;;;;4.70;1.70;;;;;;;;;;5015070;28;20220;-75
2022/06/30 00:06:43;;;;;;;3.35;1.73;;;;;;;;;;5015247;28;20211;-76
2022/06/30 00:09:11;;;;;;;3.20;1.77;;;;;;;;;;5004575;28;20668;-76
2022/06/30 00:11:37;;;;;;;2.25;1.80;;;;;;;;;;5033019;28;20302;-76
2022/06/30 00:14:02;;;;;;;2.97;1.63;;;;;;;;;;5019860;28;20227;-76
2022/06/30 00:16:28;;;;;;;2.03;1.50;;;;;;;;;;5033159;28;20216;-74
2022/06/30 00:18:53;;;;;;;2.80;2.00;;;;;;;;;;4997289;28;20595;-74
2022/06/30 00:21:24;;;;;;;5.07;1.70;;;;;;;;;;5030164;28;20223;-74
2022/06/30 00:23:52;;;;;;;2.17;1.60;;;;;;;;;;5000211;28;20299;-74
2022/06/30 00:26:19;;;;;;;3.50;1.90;;;;;;;;;;5031781;28;20216;-74
2022/06/30 00:28:47;;;;;;;2.17;1.95;;;;;;;;;;4997656;28;20261;-74
2022/06/30 00:31:15;;;;;;;2.75;1.60;;;;;;;;;;4997825;28;20938;-75
2022/06/30 00:33:45;;;;;;;3.85;2.05;;;;;;;;;;5028231;28;20229;-75
2022/06/30 00:36:12;;;;;;;2.30;2.10;;;;;;;;;;4997028;28;20693;-75
2022/06/30 00:38:40;;;;;;;5.10;2.10;;;;;;;;;;4997042;28;20252;-75
2022/06/30 00:41:10;;;;;;;2.45;2.03;;;;;;;;;;5029196;28;20354;-75
2022/06/30 00:43:46;;;;;;;2.17;1.98;;;;;;;;;;5009054;28;20216;-74
2022/06/30 00:46:14;;;;;;;3.10;1.80;;;;;;;;;;5002989;28;20314;-75
2022/06/30 00:48:40;;;;;;;3.20;1.90;;;;;;;;;;5024710;28;20224;-75
2022/06/30 00:51:06;;;;;;;3.80;2.00;;;;;;;;;;5020139;28;20228;-73
2022/06/30 00:53:35;;;;;;;4.30;1.98;;;;;;;;;;5041503;28;20222;-73
2022/06/30 00:56:03;;;;;;;2.55;1.80;;;;;;;;;;4917135;28;20212;-73
2022/06/30 00:58:28;;;;;;;2.40;1.90;;;;;;;;;;5014010;28;20238;-73
2022/06/30 01:00:54;;;;;;;2.08;1.90;;;;;;;;;;5030877;28;20713;-74
2022/06/30 01:03:22;;;;;;;2.95;1.83;;;;;;;;;;4997432;28;20250;-73
2022/06/30 01:05:47;;;;;;;2.20;2.00;;;;;;;;;;5013963;28;20315;-75
2022/06/30 01:08:16;;;;;;;5.03;2.08;;;;;;;;;;5008382;28;20246;-75
2022/06/30 01:13:28;;;;;;;2.25;1.98;;;;;;;;;;5037854;28;20219;-74
2022/06/30 01:15:58;;;;;;;3.80;2.13;;;;;;;;;;5008865;28;20235;-75
2022/06/30 01:18:26;;;;;;;3.30;2.30;;;;;;;;;;4997181;28;21045;-76
2022/06/30 01:20:52;;;;;;;2.38;2.00;;;;;;;;;;4999543;28;20234;-75
2022/06/30 01:23:17;;;;;;;3.95;1.90;;;;;;;;;;5014074;28;20224;-74
2022/06/30 01:25:43;;;;;;;2.35;2.05;;;;;;;;;;5028677;28;20228;-75
2022/06/30 01:28:08;;;;;;;3.78;2.40;;;;;;;;;;5026755;28;20239;-75
2022/06/30 01:30:34;;;;;;;2.65;2.00;;;;;;;;;;5033340;28;20233;-75
2022/06/30 01:33:04;;;;;;;3.88;2.13;;;;;;;;;;5028028;28;20221;-75
2022/06/30 01:35:29;;;;;;;2.63;1.90;;;;;;;;;;5012377;28;20333;-75
2022/06/30 01:38:00;;;;;;;3.40;1.92;;;;;;;;;;5001894;28;20212;-76
2022/06/30 01:40:28;;;;;;;2.47;2.03;;;;;;;;;;5002927;28;20312;-75
2022/06/30 01:42:56;;;;;;;2.20;2.00;;;;;;;;;;5035967;28;20235;-75
2022/06/30 01:45:27;;;;;;;3.00;2.10;;;;;;;;;;5000954;28;20228;-75
2022/06/30 01:47:56;;;;;;;3.85;2.38;;;;;;;;;;5008201;28;20219;-75
2022/06/30 01:50:28;;;;;;;2.42;2.22;;;;;;;;;;4997393;28;20224;-75
2022/06/30 01:52:54;;;;;;;5.00;2.50;;;;;;;;;;5013394;28;20219;-75
2022/06/30 01:55:21;;;;;;;3.45;2.50;;;;;;;;;;4985462;28;20684;-75
2022/06/30 01:57:52;;;;;;;3.08;2.10;;;;;;;;;;5028081;28;20701;-74
2022/06/30 02:00:21;;;;;;;3.17;2.58;;;;;;;;;;4993379;28;20226;-76
2022/06/30 02:02:48;;;;;;;3.13;2.47;;;;;;;;;;5012450;28;20207;-75
2022/06/30 02:05:16;;;;;;;4.57;2.28;;;;;;;;;;4996965;28;20247;-74
2022/06/30 02:07:47;;;;;;;6.03;2.50;;;;;;;;;;5013439;28;20237;-73
2022/06/30 02:10:16;;;;;;;3.53;2.47;;;;;;;;;;4997928;28;20644;-73
2022/06/30 02:12:45;;;;;;;2.85;2.55;;;;;;;;;;4995441;28;20224;-74
2022/06/30 02:15:12;;;;;;;3.20;2.70;;;;;;;;;;5012165;28;20216;-73
2022/06/30 02:17:37;;;;;;;4.35;2.47;;;;;;;;;;5029242;28;20254;-73
2022/06/30 02:20:07;;;;;;;2.50;2.30;;;;;;;;;;5027841;28;20625;-73
2022/06/30 02:22:35;;;;;;;2.38;2.10;;;;;;;;;;5026624;28;20227;-73
2022/06/30 02:25:01;;;;;;;3.58;2.70;;;;;;;;;;5012132;28;20228;-73
2022/06/30 02:27:28;;;;;;;2.72;2.53;;;;;;;;;;5027679;28;20318;-72
2022/06/30 02:29:54;;;;;;;3.50;2.50;;;;;;;;;;5010579;28;20220;-73
2022/06/30 02:32:22;;;;;;;3.03;2.53;;;;;;;;;;5012360;28;20238;-73
2022/06/30 02:34:49;;;;;;;3.70;2.58;;;;;;;;;;5010984;28;20203;-73
2022/06/30 02:37:16;;;;;;;4.88;2.70;;;;;;;;;;5003887;28;20220;-74
2022/06/30 02:39:42;;;;;;;3.25;2.75;;;;;;;;;;5011729;28;20243;-74
2022/06/30 02:42:10;;;;;;;2.95;2.60;;;;;;;;;;5010162;28;20219;-75
2022/06/30 02:44:38;;;;;;;4.03;2.58;;;;;;;;;;5027358;28;20263;-74
2022/06/30 02:47:04;;;;;;;3.08;2.80;;;;;;;;;;5019681;28;20987;-74
2022/06/30 02:49:29;;;;;;;5.18;2.78;;;;;;;;;;5011390;28;20246;-75
2022/06/30 02:51:55;;;;;;;5.43;2.67;;;;;;;;;;5025248;28;20949;-75
2022/06/30 02:54:27;;;;;;;4.88;2.65;;;;;;;;;;4999437;28;20235;-75
2022/06/30 02:56:53;;;;;;;2.70;2.50;;;;;;;;;;5004541;28;20227;-75
2022/06/30 02:59:20;;;;;;;3.30;3.00;;;;;;;;;;5018618;28;20584;-75
2022/06/30 03:01:49;;;;;;;5.82;2.88;;;;;;;;;;5021470;28;20325;-75
2022/06/30 03:04:18;;;;;;;3.63;2.90;;;;;;;;;;5035794;28;20223;-74
2022/06/30 03:06:45;;;;;;;2.85;2.65;;;;;;;;;;5003873;28;20208;-74
2022/06/30 03:09:14;;;;;;;4.80;3.05;;;;;;;;;;5009001;28;20211;-75
2022/06/30 03:11:44;;;;;;;4.60;2.88;;;;;;;;;;5029803;28;20225;-76
2022/06/30 03:14:12;;;;;;;4.95;2.90;;;;;;;;;;4988992;28;20220;-76
2022/06/30 03:16:38;;;;;;;5.55;3.20;;;;;;;;;;5028333;28;20216;-75
2022/06/30 03:19:06;;;;;;;4.72;3.00;;;;;;;;;;5012526;28;20203;-74
2022/06/30 03:21:36;;;;;;;4.10;3.33;;;;;;;;;;5001262;28;20224;-75
2022/06/30 03:24:06;;;;;;;3.50;3.20;;;;;;;;;;5031454;28;20228;-75
2022/06/30 03:26:32;;;;;;;4.28;3.28;;;;;;;;;;5014924;28;20735;-75
2022/06/30 03:28:57;;;;;;;3.33;3.03;;;;;;;;;;4999634;28;20219;-75
2022/06/30 03:31:25;;;;;;;4.22;3.50;;;;;;;;;;4991380;28;20709;-74
2022/06/30 03:33:51;;;;;;;3.53;2.90;;;;;;;;;;4998229;28;20718;-75
2022/06/30 03:36:21;;;;;;;4.88;3.50;;;;;;;;;;5031828;28;20220;-75
2022/06/30 03:38:47;;;;;;;5.00;3.22;;;;;;;;;;5018661;28;20227;-74
2022/06/30 03:41:14;;;;;;;7.10;2.95;;;;;;;;;;5026951;28;20220;-75
2022/06/30 03:43:40;;;;;;;4.68;3.15;;;;;;;;;;5028067;28;20215;-74
2022/06/30 03:46:07;;;;;;;4.85;3.40;;;;;;;;;;5010363;28;20669;-74
2022/06/30 03:48:41;;;;;;;5.05;3.00;;;;;;;;;;5011435;28;20224;-74
2022/06/30 03:51:11;;;;;;;4.00;3.58;;;;;;;;;;4998416;28;20701;-72
2022/06/30 03:53:37;;;;;;;4.78;3.25;;;;;;;;;;5010676;28;20689;-74
2022/06/30 03:56:03;;;;;;;7.05;3.33;;;;;;;;;;5005045;28;20229;-74
2022/06/30 03:58:28;;;;;;;6.15;3.05;;;;;;;;;;5006227;28;20707;-73
2022/06/30 04:00:56;;;;;;;4.90;3.28;;;;;;;;;;5003023;28;20243;-73
2022/06/30 04:03:21;;;;;;;7.40;3.17;;;;;;;;;;5022958;28;20230;-74
2022/06/30 04:05:52;;;;;;;3.50;3.17;;;;;;;;;;4998516;28;20315;-73
2022/06/30 04:08:17;;;;;;;3.40;3.10;;;;;;;;;;5013589;28;20231;-73
2022/06/30 04:10:45;;;;;;;3.80;3.40;;;;;;;;;;5018902;28;20220;-74
2022/06/30 04:13:11;;;;;;;3.97;3.30;;;;;;;;;;5009500;28;20273;-73
2022/06/30 04:15:39;;;;;;;4.82;3.20;;;;;;;;;;5000588;28;20944;-74
2022/06/30 04:18:04;;;;;;;4.00;3.60;;;;;;;;;;4994269;28;20235;-73
2022/06/30 04:20:30;;;;;;;4.38;3.22;;;;;;;;;;5013130;28;20224;-74
2022/06/30 04:22:55;;;;;;;5.60;3.42;;;;;;;;;;5019237;28;20270;-73
2022/06/30 04:25:21;;;;;;;4.80;3.65;;;;;;;;;;5015665;28;20714;-73
2022/06/30 04:27:52;;;;;;;5.53;3.58;;;;;;;;;;4952514;28;20219;-74
2022/06/30 04:33:07;;;;;;;4.32;3.63;;;;;;;;;;5030180;28;20259;-74
2022/06/30 04:35:35;;;;;;;4.20;3.60;;;;;;;;;;5031477;28;20251;-72
2022/06/30 04:38:05;;;;;;;6.15;3.78;;;;;;;;;;5011466;28;20233;-73
2022/06/30 04:43:15;;;;;;;5.45;3.33;;;;;;;;;;5029194;28;20748;-73
2022/06/30 04:45:46;;;;;;;4.18;3.70;;;;;;;;;;5013624;28;20227;-73
2022/06/30 04:48:11;;;;;;;4.00;3.60;;;;;;;;;;5030706;28;20597;-74
2022/06/30 04:50:38;;;;;;;4.95;3.67;;;;;;;;;;5031292;28;20270;-73
2022/06/30 04:53:06;;;;;;;6.78;3.80;;;;;;;;;;5011248;28;20254;-75
2022/06/30 04:55:34;;;;;;;4.00;3.60;;;;;;;;;;4996829;28;20247;-75
2022/06/30 04:57:59;;;;;;;3.70;3.40;;;;;;;;;;5012862;28;20223;-74
2022/06/30 05:00:29;;;;;;;3.60;3.22;;;;;;;;;;5012529;28;20224;-74
2022/06/30 05:02:57;;;;;;;3.90;3.40;;;;;;;;;;5027497;28;20224;-74
2022/06/30 05:05:27;;;;;;;7.47;3.75;;;;;;;;;;5028358;28;20248;-73
2022/06/30 05:07:53;;;;;;;4.35;3.50;;;;;;;;;;5028197;28;20221;-74
2022/06/30 05:10:18;;;;;;;4.30;3.47;;;;;;;;;;5028342;28;20234;-74
2022/06/30 05:12:46;;;;;;;4.97;3.42;;;;;;;;;;5026947;28;20314;-74
2022/06/30 05:15:14;;;;;;;5.07;3.90;;;;;;;;;;5036385;28;20276;-73
2022/06/30 05:17:39;;;;;;;4.82;3.38;;;;;;;;;;5005104;28;20234;-72
2022/06/30 05:20:06;;;;;;;5.38;3.90;;;;;;;;;;5040311;28;20285;-73
2022/06/30 05:22:32;;;;;;;5.47;3.85;;;;;;;;;;5025249;28;20234;-72
2022/06/30 05:27:46;;;;;;;7.05;4.15;;;;;;;;;;5025422;28;20614;-73
2022/06/30 05:30:15;;;;;;;5.88;5.10;;;;;;;;;;5011323;28;20306;-73
2022/06/30 05:32:41;;;;;;;8.85;5.20;;;;;;;;;;4996142;28;20370;-74
2022/06/30 05:35:09;;;;;;;7.70;5.47;;;;;;;;;;5027252;28;20765;-75
2022/06/30 05:37:35;;;;;;;7.45;5.88;;;;;;;;;;5029240;28;20223;-74
2022/06/30 05:40:04;;;;;;;8.65;5.70;;;;;;;;;;5021640;28;20239;-73
2022/06/30 05:42:32;;;;;;;10.30;6.35;;;;;;;;;;5004175;28;20216;-73
2022/06/30 05:45:02;;;;;;;8.55;5.60;;;;;;;;;;5015157;28;20225;-73
2022/06/30 05:47:31;;;;;;;7.85;6.03;;;;;;;;;;5010914;28;20227;-75
2022/06/30 05:49:59;;;;;;;9.18;5.90;;;;;;;;;;5011309;28;20243;-73
2022/06/30 05:52:27;;;;;;;8.00;5.75;;;;;;;;;;5010696;28;20303;-71
2022/06/30 05:54:56;;;;;;;8.65;5.85;;;;;;;;;;5031682;28;20262;-75
2022/06/30 05:57:24;;;;;;;10.05;6.22;;;;;;;;;;5024504;28;20287;-75
2022/06/30 05:59:49;;;;;;;9.88;7.03;;;;;;;;;;5009651;28;20224;-76
2022/06/30 06:02:15;;;;;;;10.80;6.55;;;;;;;;;;5015091;28;20219;-76
2022/06/30 06:04:40;;;;;;;10.80;7.47;;;;;;;;;;5008508;28;20270;-74
2022/06/30 06:07:06;;;;;;;12.77;8.50;;;;;;;;;;5014046;28;20740;-74
2022/06/30 06:09:33;;;;;;;11.27;7.50;;;;;;;;;;5028197;28;20231;-75
2022/06/30 06:11:59;;;;;;;11.68;8.00;;;;;;;;;;5026285;28;20218;-74
2022/06/30 06:14:27;;;;;;;10.98;7.82;;;;;;;;;;4993591;28;20643;-74
2022/06/30 06:16:53;;;;;;;11.73;7.85;;;;;;;;;;5015334;28;20223;-75
2022/06/30 06:19:18;;;;;;;12.38;8.40;;;;;;;;;;5018133;28;20609;-76
2022/06/30 06:21:48;;;;;;;12.52;8.57;;;;;;;;;;5004148;28;20832;-76
2022/06/30 06:24:15;;;;;;;13.23;9.30;;;;;;;;;;4993884;28;20227;-75
2022/06/30 06:26:43;;;;;;;12.43;8.68;;;;;;;;;;5023975;28;20224;-75
2022/06/30 06:29:09;;;;;;;14.00;9.35;;;;;;;;;;5027508;28;20262;-74
2022/06/30 06:31:41;;;;;;;16.60;9.40;;;;;;;;;;5009130;28;20216;-74
2022/06/30 06:34:06;;;;;;;15.18;9.73;;;;;;;;;;5015975;28;20219;-74
2022/06/30 06:36:32;;;;;;;17.73;10.07;;;;;;;;;;5003933;28;20272;-73
2022/06/30 06:38:58;;;;;;;14.70;8.77;;;;;;;;;;5017659;28;20421;-73
2022/06/30 06:41:28;;;;;;;13.07;8.40;;;;;;;;;;5019738;28;20220;-73
2022/06/30 06:43:55;;;;;;;8.95;7.30;;;;;;;;;;5035584;28;20793;-74
2022/06/30 06:46:26;;;;;;;8.90;7.28;;;;;;;;;;5003154;28;20291;-73
2022/06/30 06:48:56;;;;;;;10.38;6.32;;;;;;;;;;5005221;28;20607;-73
2022/06/30 06:51:21;;;;;;;8.95;5.32;;;;;;;;;;4982916;28;20247;-74
2022/06/30 06:53:47;;;;;;;6.18;4.53;;;;;;;;;;5014139;28;20858;-73
2022/06/30 06:56:13;;;;;;;5.55;4.50;;;;;;;;;;5006309;28;20276;-73
2022/06/30 06:58:41;;;;;;;5.75;3.60;;;;;;;;;;5009984;28;20218;-74
2022/06/30 07:01:13;;;;;;;3.83;3.38;;;;;;;;;;5034769;28;20220;-73
2022/06/30 07:03:41;;;;;;;3.38;3.05;;;;;;;;;;5034914;28;20215;-73
2022/06/30 07:06:07;;;;;;;4.90;3.20;;;;;;;;;;4998738;28;20290;-75
2022/06/30 07:08:35;;;;;;;3.45;3.00;;;;;;;;;;5013857;28;20693;-74
2022/06/30 07:11:03;;;;;;;3.15;2.70;;;;;;;;;;5018117;28;20235;-75
2022/06/30 07:13:30;;;;;;;4.53;2.78;;;;;;;;;;5012091;28;20230;-75
2022/06/30 07:15:57;;;;;;;4.40;3.00;;;;;;;;;;5029190;28;20220;-73
2022/06/30 07:18:25;;;;;;;3.20;3.00;;;;;;;;;;5010489;28;20227;-73
2022/06/30 07:20:50;;;;;;;3.50;3.20;;;;;;;;;;5007973;28;20286;-73
2022/06/30 07:23:16;;;;;;;4.32;3.20;;;;;;;;;;5019073;28;20216;-74
2022/06/30 07:25:41;;;;;;;3.38;3.10;;;;;;;;;;4995949;28;20223;-75
2022/06/30 07:28:07;;;;;;;4.05;3.45;;;;;;;;;;5008826;28;20725;-75
2022/06/30 07:30:59;;;;;;;4.60;3.42;;;;;;;;;;5000297;28;20246;-73
2022/06/30 07:36:32;;;;;;;6.90;3.78;;;;;;;;;;5022972;28;20230;-74
2022/06/30 07:38:57;;;;;;;3.92;3.58;;;;;;;;;;4995289;28;20303;-75
2022/06/30 07:41:24;;;;;;;4.20;3.72;;;;;;;;;;5021955;28;20263;-74
2022/06/30 07:43:50;;;;;;;4.00;3.33;;;;;;;;;;4935679;28;20225;-74
2022/06/30 07:46:19;;;;;;;3.58;3.28;;;;;;;;;;4995448;28;20260;-74
2022/06/30 07:48:50;;;;;;;6.75;3.88;;;;;;;;;;5008345;28;20706;-74
2022/06/30 07:51:20;;;;;;;4.20;3.80;;;;;;;;;;5028137;28;20330;-74
2022/06/30 07:53:49;;;;;;;5.68;3.97;;;;;;;;;;5010166;28;20267;-75
2022/06/30 07:56:15;;;;;;;3.83;3.40;;;;;;;;;;5019789;28;20303;-75
2022/06/30 07:58:41;;;;;;;4.25;3.85;;;;;;;;;;5032044;28;20726;-74
2022/06/30 08:01:06;;;;;;;5.53;4.07;;;;;;;;;;5032891;28;20216;-73
2022/06/30 08:03:32;;;;;;;4.88;3.72;;;;;;;;;;4997610;28;20220;-76
2022/06/30 08:06:04;;;;;;;4.10;3.70;;;;;;;;;;5030342;28;20315;-77
2022/06/30 08:08:30;;;;;;;4.70;3.45;;;;;;;;;;5009294;28;20231;-75
2022/06/30 08:10:59;;;;;;;4.18;3.88;;;;;;;;;;5028662;28;20224;-76
2022/06/30 08:13:25;;;;;;;4.10;3.60;;;;;;;;;;5029427;28;20220;-76
2022/06/30 08:15:51;;;;;;;3.95;3.65;;;;;;;;;;5032983;28;20761;-76
2022/06/30 08:18:16;;;;;;;4.15;3.47;;;;;;;;;;5032921;28;20231;-76
2022/06/30 08:20:46;;;;;;;4.60;3.78;;;;;;;;;;5013631;28;20713;-74
2022/06/30 08:23:12;;;;;;;4.00;3.60;;;;;;;;;;4996580;28;20697;-75
2022/06/30 08:25:40;;;;;;;3.97;3.63;;;;;;;;;;5015329;28;20247;-75
2022/06/30 08:28:08;;;;;;;3.40;3.10;;;;;;;;;;5013535;28;20310;-75
2022/06/30 08:30:38;;;;;;;4.03;3.65;;;;;;;;;;5029065;28;20223;-75
2022/06/30 08:33:03;;;;;;;6.38;3.28;;;;;;;;;;4995338;28;20217;-74
2022/06/30 08:35:30;;;;;;;3.58;3.28;;;;;;;;;;5018372;28;20744;-75
2022/06/30 08:37:58;;;;;;;3.92;3.25;;;;;;;;;;5028441;28;20660;-77
2022/06/30 08:43:14;;;;;;;3.50;3.20;;;;;;;;;;5030024;28;20664;-75
2022/06/30 08:45:39;;;;;;;3.63;3.33;;;;;;;;;;5027642;28;20236;-78
2022/06/30 08:48:05;;;;;;;4.25;3.15;;;;;;;;;;4986007;28;20285;-78
2022/06/30 08:50:33;;;;;;;4.50;3.20;;;;;;;;;;5003146;28;20298;-78
2022/06/30 08:52:59;;;;;;;3.40;3.10;;;;;;;;;;5035858;28;20262;-77
2022/06/30 08:55:27;;;;;;;4.40;4.00;;;;;;;;;;5003721;28;20215;-77
2022/06/30 08:57:55;;;;;;;5.43;4.00;;;;;;;;;;5018021;28;20224;-75
2022/06/30 09:00:21;;;;;;;4.70;3.60;;;;;;;;;;5035017;28;20228;-76
2022/06/30 09:02:49;;;;;;;4.68;3.70;;;;;;;;;;5029516;28;20290;-76
2022/06/30 09:05:14;;;;;;;4.10;3.47;;;;;;;;;;5022530;28;20783;-76
2022/06/30 09:07:42;;;;;;;4.20;3.90;;;;;;;;;;5012047;28;20228;-76
2022/06/30 09:10:10;;;;;;;3.70;3.40;;;;;;;;;;5029898;28;20228;-76
2022/06/30 09:12:36;;;;;;;4.00;3.50;;;;;;;;;;5028370;28;20224;-77
2022/06/30 09:15:04;;;;;;;3.60;3.30;;;;;;;;;;4999943;28;20219;-77
2022/06/30 09:17:29;;;;;;;3.95;3.50;;;;;;;;;;5010099;28;20224;-76
2022/06/30 09:19:57;;;;;;;4.30;3.30;;;;;;;;;;5033013;28;20220;-76
2022/06/30 09:22:27;;;;;;;4.80;3.88;;;;;;;;;;5033278;28;20236;-76
2022/06/30 09:24:54;;;;;;;6.40;4.60;;;;;;;;;;5035191;28;20597;-75
2022/06/30 09:27:20;;;;;;;5.28;3.80;;;;;;;;;;5005998;28;20223;-76
2022/06/30 09:29:47;;;;;;;4.35;3.90;;;;;;;;;;5017201;28;20642;-76
2022/06/30 09:32:17;;;;;;;5.35;3.80;;;;;;;;;;5010567;28;20579;-77
2022/06/30 09:34:48;;;;;;;3.40;3.10;;;;;;;;;;5011722;28;20767;-76
2022/06/30 09:37:18;;;;;;;4.15;3.33;;;;;;;;;;5010590;28;20231;-77
2022/06/30 09:39:44;;;;;;;3.47;3.17;;;;;;;;;;5027269;28;20231;-77
2022/06/30 09:42:12;;;;;;;4.68;3.38;;;;;;;;;;5010760;28;20273;-76
2022/06/30 09:44:38;;;;;;;3.43;3.10;;;;;;;;;;5002951;28;20704;-77
2022/06/30 09:47:06;;;;;;;4.43;3.00;;;;;;;;;;5011237;28;20224;-75
2022/06/30 09:49:36;;;;;;;3.60;3.30;;;;;;;;;;4989094;28;20227;-76
2022/06/30 09:52:15;;;;;;;4.75;3.15;;;;;;;;;;5022676;28;20310;-76
2022/06/30 09:55:02;;;;;;;3.50;3.20;;;;;;;;;;5040569;28;20220;-76
2022/06/30 09:57:36;;;;;;;3.25;3.00;;;;;;;;;;5031697;28;20255;-77
2022/06/30 10:00:17;;;;;;;3.75;3.08;;;;;;;;;;4993891;28;20682;-76
2022/06/30 10:02:46;;;;;;;3.38;3.08;;;;;;;;;;5026945;28;20717;-76
2022/06/30 10:05:15;;;;;;;5.22;3.17;;;;;;;;;;5026183;28;20235;-75
2022/06/30 10:07:41;;;;;;;3.67;3.10;;;;;;;;;;4998286;28;20218;-77
2022/06/30 10:10:11;;;;;;;3.28;3.00;;;;;;;;;;4987801;28;20220;-74
2022/06/30 10:12:40;;;;;;;3.85;3.20;;;;;;;;;;4992614;28;20231;-77
2022/06/30 10:15:11;;;;;;;3.65;3.30;;;;;;;;;;5031494;28;20212;-77
2022/06/30 10:17:44;;;;;;;3.72;3.22;;;;;;;;;;5001072;28;20231;-77
2022/06/30 10:20:15;;;;;;;3.47;3.20;;;;;;;;;;5007661;28;20271;-77
2022/06/30 10:22:43;;;;;;;3.85;3.35;;;;;;;;;;5003121;28;20220;-76
2022/06/30 10:25:09;;;;;;;4.47;3.78;;;;;;;;;;5026195;28;20256;-74
2022/06/30 10:27:34;;;;;;;3.75;3.25;;;;;;;;;;5018271;28;20263;-76
2022/06/30 10:30:23;;;;;;;4.88;3.58;;;;;;;;;;4994202;28;20212;-76
2022/06/30 10:33:01;;;;;;;4.15;3.70;;;;;;;;;;5005161;28;20243;-77
2022/06/30 10:35:44;;;;;;;4.28;3.70;;;;;;;;;;5002277;28;20231;-78
2022/06/30 10:38:18;;;;;;;3.92;3.58;;;;;;;;;;5008876;28;20615;-76
2022/06/30 10:40:55;;;;;;;5.95;3.53;;;;;;;;;;5011004;28;20632;-76
2022/06/30 10:43:20;;;;;;;3.95;3.58;;;;;;;;;;5026926;28;20719;-76
2022/06/30 10:45:59;;;;;;;4.15;3.75;;;;;;;;;;4993537;28;20303;-76
2022/06/30 10:48:50;;;;;;;3.92;3.50;;;;;;;;;;5026315;28;20220;-76
2022/06/30 10:51:17;;;;;;;4.10;3.70;;;;;;;;;;5026436;28;20208;-76
2022/06/30 10:53:43;;;;;;;5.68;3.42;;;;;;;;;;5025231;28;20285;-75
2022/06/30 10:56:13;;;;;;;4.25;3.85;;;;;;;;;;5028761;28;20223;-76
2022/06/30 10:59:05;;;;;;;5.07;3.85;;;;;;;;;;5014258;28;20229;-77
2022/06/30 11:01:33;;;;;;;4.22;3.90;;;;;;;;;;4915804;28;20231;-76
2022/06/30 11:04:00;;;;;;;4.35;3.95;;;;;;;;;;4977086;28;20231;-76
2022/06/30 11:06:54;;;;;;;4.32;3.92;;;;;;;;;;5022658;28;20239;-76
2022/06/30 11:09:45;;;;;;;4.35;3.88;;;;;;;;;;5021999;28;20215;-76
2022/06/30 11:12:11;;;;;;;3.95;3.60;;;;;;;;;;5005036;28;20231;-76
2022/06/30 11:14:52;;;;;;;4.00;3.60;;;;;;;;;;5014487;28;20219;-76
2022/06/30 11:17:22;;;;;;;5.95;4.28;;;;;;;;;;4995634;28;20242;-76
2022/06/30 11:19:59;;;;;;;4.25;3.85;;;;;;;;;;5027240;28;20219;-76
2022/06/30 11:22:27;;;;;;;4.05;3.75;;;;;;;;;;5011235;28;20219;-77
2022/06/30 11:24:53;;;;;;;4.03;3.67;;;;;;;;;;5007852;28;20220;-75
2022/06/30 11:27:23;;;;;;;4.07;3.78;;;;;;;;;;5006826;28;20223;-76
2022/06/30 11:30:20;;;;;;;5.22;4.30;;;;;;;;;;5009748;28;20216;-76
2022/06/30 11:32:49;;;;;;;5.03;4.18;;;;;;;;;;5016462;28;20756;-75
2022/06/30 11:35:18;;;;;;;3.75;3.45;;;;;;;;;;5028075;28;20208;-76
2022/06/30 11:37:43;;;;;;;4.50;4.10;;;;;;;;;;5012831;28;20224;-76
2022/06/30 11:40:15;;;;;;;4.38;3.97;;;;;;;;;;4992479;28;20293;-76
2022/06/30 11:42:42;;;;;;;4.00;3.70;;;;;;;;;;4971014;28;20278;-75
2022/06/30 11:45:21;;;;;;;4.47;4.05;;;;;;;;;;5007901;28;20228;-76
2022/06/30 11:47:52;;;;;;;4.40;3.60;;;;;;;;;;5019289;28;20226;-75
2022/06/30 11:50:23;;;;;;;5.20;3.83;;;;;;;;;;5028261;28;20262;-78
2022/06/30 11:52:52;;;;;;;5.28;3.83;;;;;;;;;;5028839;28;20257;-76
2022/06/30 11:55:17;;;;;;;3.92;3.63;;;;;;;;;;5011252;28;20216;-76
2022/06/30 11:57:45;;;;;;;4.78;4.32;;;;;;;;;;5029191;28;20728;-75
2022/06/30 12:00:13;;;;;;;4.18;3.78;;;;;;;;;;5009774;28;20705;-75
2022/06/30 12:02:42;;;;;;;4.63;3.92;;;;;;;;;;5025037;28;20228;-76
2022/06/30 12:05:10;;;;;;;4.47;4.13;;;;;;;;;;5003471;28;20233;-76
2022/06/30 12:07:41;;;;;;;4.05;3.65;;;;;;;;;;5027788;28;20228;-76
2022/06/30 12:10:08;;;;;;;4.10;3.70;;;;;;;;;;4993940;28;20351;-77
2022/06/30 12:12:36;;;;;;;5.07;3.95;;;;;;;;;;4993056;28;20234;-77
2022/06/30 12:15:14;;;;;;;6.20;4.13;;;;;;;;;;5008626;28;20842;-77
2022/06/30 12:17:52;;;;;;;5.15;3.95;;;;;;;;;;5010468;28;20211;-76
2022/06/30 12:20:21;;;;;;;4.82;4.38;;;;;;;;;;4996455;28;20723;-76
2022/06/30 12:22:48;;;;;;;4.35;4.00;;;;;;;;;;4995326;28;20232;-76
2022/06/30 12:25:14;;;;;;;4.85;4.32;;;;;;;;;;5013594;28;20220;-75
2022/06/30 12:27:46;;;;;;;5.03;4.63;;;;;;;;;;5029076;28;20702;-76
2022/06/30 12:30:16;;;;;;;4.38;3.97;;;;;;;;;;5011737;28;20763;-75
2022/06/30 12:32:41;;;;;;;4.65;4.25;;;;;;;;;;5003999;28;20315;-75
2022/06/30 12:35:11;;;;;;;4.47;4.07;;;;;;;;;;5019321;28;20228;-75
2022/06/30 12:37:36;;;;;;;5.35;4.10;;;;;;;;;;5017525;28;20724;-75
2022/06/30 12:40:07;;;;;;;5.03;4.63;;;;;;;;;;5028355;28;20224;-76
2022/06/30 12:42:48;;;;;;;5.03;4.63;;;;;;;;;;5003576;28;20235;-76
2022/06/30 12:45:36;;;;;;;5.07;4.43;;;;;;;;;;5013661;28;20220;-76
2022/06/30 12:48:05;;;;;;;6.05;4.20;;;;;;;;;;5031654;28;20227;-76
2022/06/30 12:50:40;;;;;;;4.68;4.30;;;;;;;;;;5014153;28;20231;-76
2022/06/30 12:53:25;;;;;;;5.10;4.43;;;;;;;;;;4955571;28;20753;-76
2022/06/30 12:55:56;;;;;;;4.80;4.20;;;;;;;;;;5005074;28;20584;-76
2022/06/30 12:58:21;;;;;;;4.88;4.47;;;;;;;;;;4998946;28;20279;-76
2022/06/30 13:00:49;;;;;;;4.88;4.22;;;;;;;;;;5008955;28;20217;-76
2022/06/30 13:03:15;;;;;;;4.75;4.35;;;;;;;;;;5011200;28;20216;-76
2022/06/30 13:05:43;;;;;;;5.88;4.05;;;;;;;;;;4997559;28;20246;-75
2022/06/30 13:08:11;;;;;;;5.68;4.15;;;;;;;;;;4988772;28;20224;-77
2022/06/30 13:13:23;;;;;;;4.95;4.55;;;;;;;;;;5022924;28;20278;-78
2022/06/30 13:15:48;;;;;;;4.20;3.78;;;;;;;;;;5030872;28;20892;-77
2022/06/30 13:18:16;;;;;;;4.82;4.38;;;;;;;;;;5038261;28;20315;-78
2022/06/30 13:20:46;;;;;;;4.43;4.05;;;;;;;;;;5012380;28;20809;-77
2022/06/30 13:23:14;;;;;;;3.80;3.50;;;;;;;;;;5029644;28;20292;-77
2022/06/30 13:25:42;;;;;;;4.25;3.90;;;;;;;;;;5002141;28;20231;-79
2022/06/30 13:28:08;;;;;;;4.40;4.00;;;;;;;;;;5002052;28;20684;-79
2022/06/30 13:30:34;;;;;;;5.68;3.88;;;;;;;;;;5034218;28;20966;-79
2022/06/30 13:33:00;;;;;;;7.35;4.32;;;;;;;;;;5037326;28;20303;-79
2022/06/30 13:35:25;;;;;;;4.35;4.05;;;;;;;;;;4952945;28;20701;-78
2022/06/30 13:37:51;;;;;;;3.88;3.45;;;;;;;;;;5032945;28;20228;-78
2022/06/30 13:40:17;;;;;;;4.32;3.92;;;;;;;;;;5031215;28;20252;-77
2022/06/30 13:42:44;;;;;;;5.03;4.07;;;;;;;;;;5035099;28;20216;-78
2022/06/30 13:45:12;;;;;;;4.63;4.22;;;;;;;;;;5038039;28;20257;-79
2022/06/30 13:47:38;;;;;;;5.13;3.95;;;;;;;;;;5006710;28;20684;-77
2022/06/30 13:50:04;;;;;;;6.15;4.38;;;;;;;;;;5022464;28;20216;-79
2022/06/30 13:52:34;;;;;;;5.03;4.47;;;;;;;;;;5036178;28;20307;-81
2022/06/30 13:55:02;;;;;;;4.50;4.10;;;;;;;;;;5027320;28;20225;-77
2022/06/30 13:57:28;;;;;;;4.53;4.13;;;;;;;;;;4933325;28;20250;-77
2022/06/30 13:59:56;;;;;;;5.70;4.18;;;;;;;;;;5010760;28;20216;-78
2022/06/30 14:02:21;;;;;;;4.95;4.50;;;;;;;;;;5034966;28;20221;-80
2022/06/30 14:04:50;;;;;;;4.90;4.10;;;;;;;;;;5022262;28;20224;-78
2022/06/30 14:07:18;;;;;;;5.35;3.92;;;;;;;;;;4935891;28;20776;-78
2022/06/30 14:09:44;;;;;;;4.40;3.88;;;;;;;;;;5034703;28;20231;-80
2022/06/30 14:12:13;;;;;;;4.40;4.00;;;;;;;;;;5006613;28;20292;-79
2022/06/30 14:14:38;;;;;;;4.05;3.72;;;;;;;;;;5035558;28;20217;-77
2022/06/30 14:17:04;;;;;;;4.88;4.30;;;;;;;;;;5033793;28;20528;-77
2022/06/30 14:19:30;;;;;;;4.25;3.90;;;;;;;;;;5031300;28;20222;-77
2022/06/30 14:21:57;;;;;;;4.68;3.83;;;;;;;;;;5030123;28;20235;-78
2022/06/30 14:24:26;;;;;;;4.90;4.40;;;;;;;;;;4981470;28;20562;-79
2022/06/30 14:26:54;;;;;;;5.15;4.65;;;;;;;;;;5014220;28;20231;-78
2022/06/30 14:29:20;;;;;;;5.68;4.28;;;;;;;;;;5031030;28;20253;-79
2022/06/30 14:31:46;;;;;;;4.13;3.72;;;;;;;;;;4998432;28;20350;-78
2022/06/30 14:34:11;;;;;;;4.82;4.30;;;;;;;;;;4976958;28;20220;-78
2022/06/30 14:36:37;;;;;;;4.70;4.30;;;;;;;;;;5035361;28;20213;-78
2022/06/30 14:39:02;;;;;;;6.03;4.20;;;;;;;;;;5036029;28;20211;-79
2022/06/30 14:44:19;;;;;;;4.50;4.10;;;;;;;;;;5023031;28;20219;-78
2022/06/30 14:46:44;;;;;;;4.97;4.55;;;;;;;;;;5034946;28;20258;-79
2022/06/30 14:49:10;;;;;;;4.53;4.13;;;;;;;;;;5035660;28;20246;-78
2022/06/30 14:51:38;;;;;;;4.28;3.88;;;;;;;;;;5017884;28;20293;-79
2022/06/30 14:54:06;;;;;;;4.40;4.00;;;;;;;;;;5017150;28;20978;-80
2022/06/30 14:56:31;;;;;;;4.82;4.32;;;;;;;;;;5015952;28;20238;-79
2022/06/30 14:58:57;;;;;;;4.45;4.05;;;;;;;;;;5033511;28;20704;-78
2022/06/30 15:01:25;;;;;;;4.43;4.03;;;;;;;;;;5006515;28;20220;-80
2022/06/30 15:03:50;;;;;;;6.43;4.43;;;;;;;;;;5033207;28;20220;-79
2022/06/30 15:06:18;;;;;;;4.78;4.30;;;;;;;;;;5016337;28;20231;-78
2022/06/30 15:08:44;;;;;;;5.85;4.50;;;;;;;;;;5011291;28;20225;-78
2022/06/30 15:11:09;;;;;;;7.45;4.13;;;;;;;;;;5002756;28;20228;-78
2022/06/30 15:13:35;;;;;;;4.80;4.07;;;;;;;;;;5037051;28;20231;-79